sensor_id;sensor_type;location;lat;lon;timestamp;P1;durP1;ratioP1;P2;durP2;ratioP2
14052;SDS011;7101;51.600;7.310;2022-09-12T00:01:02;18.08;;;14.25;;
14052;SDS011;7101;51.600;7.310;2022-09-12T00:03:33;18.02;;;13.48;;
14052;SDS011;7101;51.600;7.310;2022-09-12T00:06:00;15.93;;;12.77;;
14052;SDS011;7101;51.600;7.310;2022-09-12T00:08:34;15.82;;;11.80;;
14052;SDS011;7101;51.600;7.310;2022-09-12T00:11:04;14.68;;;12.45;;
14052;SDS011;7101;51.600;7.310;2022-09-12T00:13:35;15.43;;;12.45;;
14052;SDS011;7101;51.600;7.310;2022-09-12T00:16:03;17.33;;;12.10;;
14052;SDS011;7101;51.600;7.310;2022-09-12T00:18:31;16.48;;;12.50;;
14052;SDS011;7101;51.600;7.310;2022-09-12T00:21:00;17.80;;;13.27;;
14052;SDS011;7101;51.600;7.310;2022-09-12T00:23:29;19.30;;;14.55;;
14052;SDS011;7101;51.600;7.310;2022-09-12T00:25:56;15.32;;;12.95;;
14052;SDS011;7101;51.600;7.310;2022-09-12T00:28:24;20.85;;;14.48;;
14052;SDS011;7101;51.600;7.310;2022-09-12T00:30:51;14.98;;;12.93;;
14052;SDS011;7101;51.600;7.310;2022-09-12T00:33:18;14.65;;;12.98;;
14052;SDS011;7101;51.600;7.310;2022-09-12T00:35:46;19.60;;;13.23;;
14052;SDS011;7101;51.600;7.310;2022-09-12T00:38:14;17.15;;;13.93;;
14052;SDS011;7101;51.600;7.310;2022-09-12T00:40:42;16.92;;;14.43;;
14052;SDS011;7101;51.600;7.310;2022-09-12T00:43:11;18.80;;;13.85;;
14052;SDS011;7101;51.600;7.310;2022-09-12T00:45:40;16.67;;;13.10;;
14052;SDS011;7101;51.600;7.310;2022-09-12T00:48:13;15.75;;;12.95;;
14052;SDS011;7101;51.600;7.310;2022-09-12T00:50:48;18.02;;;13.27;;
14052;SDS011;7101;51.600;7.310;2022-09-12T00:53:15;16.60;;;13.52;;
14052;SDS011;7101;51.600;7.310;2022-09-12T00:55:44;16.60;;;13.35;;
14052;SDS011;7101;51.600;7.310;2022-09-12T00:58:17;20.20;;;14.40;;
14052;SDS011;7101;51.600;7.310;2022-09-12T01:00:49;18.98;;;15.07;;
14052;SDS011;7101;51.600;7.310;2022-09-12T01:03:17;19.33;;;14.48;;
14052;SDS011;7101;51.600;7.310;2022-09-12T01:05:48;17.23;;;13.77;;
14052;SDS011;7101;51.600;7.310;2022-09-12T01:08:23;19.38;;;12.73;;
14052;SDS011;7101;51.600;7.310;2022-09-12T01:10:52;17.08;;;13.43;;
14052;SDS011;7101;51.600;7.310;2022-09-12T01:13:20;16.27;;;11.98;;
14052;SDS011;7101;51.600;7.310;2022-09-12T01:15:49;20.48;;;13.98;;
14052;SDS011;7101;51.600;7.310;2022-09-12T01:18:19;21.00;;;13.05;;
14052;SDS011;7101;51.600;7.310;2022-09-12T01:21:04;17.13;;;13.57;;
14052;SDS011;7101;51.600;7.310;2022-09-12T01:23:52;18.60;;;13.27;;
14052;SDS011;7101;51.600;7.310;2022-09-12T01:26:56;17.67;;;12.45;;
14052;SDS011;7101;51.600;7.310;2022-09-12T01:30:02;16.60;;;12.75;;
14052;SDS011;7101;51.600;7.310;2022-09-12T01:32:42;15.48;;;12.35;;
14052;SDS011;7101;51.600;7.310;2022-09-12T01:35:18;16.60;;;12.55;;
14052;SDS011;7101;51.600;7.310;2022-09-12T01:37:52;19.08;;;13.48;;
14052;SDS011;7101;51.600;7.310;2022-09-12T01:40:32;22.92;;;13.93;;
14052;SDS011;7101;51.600;7.310;2022-09-12T01:43:08;18.13;;;13.48;;
14052;SDS011;7101;51.600;7.310;2022-09-12T01:45:48;17.13;;;12.90;;
14052;SDS011;7101;51.600;7.310;2022-09-12T01:48:22;17.33;;;12.35;;
14052;SDS011;7101;51.600;7.310;2022-09-12T01:50:55;15.32;;;12.27;;
14052;SDS011;7101;51.600;7.310;2022-09-12T01:53:30;14.95;;;11.63;;
14052;SDS011;7101;51.600;7.310;2022-09-12T01:56:02;16.52;;;12.13;;
14052;SDS011;7101;51.600;7.310;2022-09-12T01:58:35;17.02;;;12.18;;
14052;SDS011;7101;51.600;7.310;2022-09-12T02:01:09;15.40;;;12.32;;
14052;SDS011;7101;51.600;7.310;2022-09-12T02:03:40;19.48;;;11.98;;
14052;SDS011;7101;51.600;7.310;2022-09-12T02:06:11;14.85;;;12.52;;
14052;SDS011;7101;51.600;7.310;2022-09-12T02:08:44;16.52;;;13.02;;
14052;SDS011;7101;51.600;7.310;2022-09-12T02:11:14;17.73;;;12.45;;
14052;SDS011;7101;51.600;7.310;2022-09-12T02:13:42;18.40;;;12.70;;
14052;SDS011;7101;51.600;7.310;2022-09-12T02:16:14;12.07;;;9.75;;
14052;SDS011;7101;51.600;7.310;2022-09-12T02:18:45;15.88;;;11.57;;
14052;SDS011;7101;51.600;7.310;2022-09-12T02:21:15;15.32;;;11.98;;
14052;SDS011;7101;51.600;7.310;2022-09-12T02:23:45;17.58;;;12.15;;
14052;SDS011;7101;51.600;7.310;2022-09-12T02:26:17;25.52;;;12.23;;
14052;SDS011;7101;51.600;7.310;2022-09-12T02:28:48;16.05;;;11.73;;
14052;SDS011;7101;51.600;7.310;2022-09-12T02:31:18;17.00;;;12.30;;
14052;SDS011;7101;51.600;7.310;2022-09-12T02:33:51;16.02;;;11.95;;
14052;SDS011;7101;51.600;7.310;2022-09-12T02:36:31;20.17;;;12.90;;
14052;SDS011;7101;51.600;7.310;2022-09-12T02:39:04;15.48;;;11.90;;
14052;SDS011;7101;51.600;7.310;2022-09-12T02:41:31;18.55;;;12.02;;
14052;SDS011;7101;51.600;7.310;2022-09-12T02:43:58;16.25;;;12.93;;
14052;SDS011;7101;51.600;7.310;2022-09-12T02:46:27;18.27;;;12.48;;
14052;SDS011;7101;51.600;7.310;2022-09-12T02:49:01;16.40;;;11.77;;
14052;SDS011;7101;51.600;7.310;2022-09-12T02:51:27;18.80;;;13.10;;
14052;SDS011;7101;51.600;7.310;2022-09-12T02:53:54;17.70;;;12.43;;
14052;SDS011;7101;51.600;7.310;2022-09-12T02:56:22;16.05;;;12.38;;
14052;SDS011;7101;51.600;7.310;2022-09-12T02:58:52;15.32;;;11.82;;
14052;SDS011;7101;51.600;7.310;2022-09-12T03:01:25;18.27;;;12.60;;
14052;SDS011;7101;51.600;7.310;2022-09-12T03:04:08;17.73;;;12.52;;
14052;SDS011;7101;51.600;7.310;2022-09-12T03:06:49;16.98;;;12.38;;
14052;SDS011;7101;51.600;7.310;2022-09-12T03:09:25;18.50;;;12.43;;
14052;SDS011;7101;51.600;7.310;2022-09-12T03:12:03;18.55;;;12.27;;
14052;SDS011;7101;51.600;7.310;2022-09-12T03:14:42;16.35;;;11.93;;
14052;SDS011;7101;51.600;7.310;2022-09-12T03:17:28;14.82;;;11.73;;
14052;SDS011;7101;51.600;7.310;2022-09-12T03:20:02;18.25;;;12.15;;
14052;SDS011;7101;51.600;7.310;2022-09-12T03:22:37;16.92;;;10.93;;
14052;SDS011;7101;51.600;7.310;2022-09-12T03:25:17;14.75;;;10.95;;
14052;SDS011;7101;51.600;7.310;2022-09-12T03:27:50;15.45;;;11.48;;
14052;SDS011;7101;51.600;7.310;2022-09-12T03:30:21;17.42;;;12.80;;
14052;SDS011;7101;51.600;7.310;2022-09-12T03:32:50;19.08;;;12.80;;
14052;SDS011;7101;51.600;7.310;2022-09-12T03:35:21;18.65;;;13.05;;
14052;SDS011;7101;51.600;7.310;2022-09-12T03:37:49;16.90;;;12.52;;
14052;SDS011;7101;51.600;7.310;2022-09-12T03:40:17;21.55;;;13.07;;
14052;SDS011;7101;51.600;7.310;2022-09-12T03:42:44;15.57;;;11.77;;
14052;SDS011;7101;51.600;7.310;2022-09-12T03:45:12;17.45;;;12.30;;
14052;SDS011;7101;51.600;7.310;2022-09-12T03:47:40;19.30;;;12.07;;
14052;SDS011;7101;51.600;7.310;2022-09-12T03:50:09;20.30;;;12.23;;
14052;SDS011;7101;51.600;7.310;2022-09-12T03:52:36;18.15;;;11.88;;
14052;SDS011;7101;51.600;7.310;2022-09-12T03:55:03;20.92;;;12.80;;
14052;SDS011;7101;51.600;7.310;2022-09-12T03:57:31;19.13;;;12.27;;
14052;SDS011;7101;51.600;7.310;2022-09-12T03:59:57;19.58;;;12.57;;
14052;SDS011;7101;51.600;7.310;2022-09-12T04:02:26;19.20;;;13.00;;
14052;SDS011;7101;51.600;7.310;2022-09-12T04:04:52;19.17;;;12.50;;
14052;SDS011;7101;51.600;7.310;2022-09-12T04:07:21;25.15;;;13.13;;
14052;SDS011;7101;51.600;7.310;2022-09-12T04:09:47;19.17;;;12.18;;
14052;SDS011;7101;51.600;7.310;2022-09-12T04:12:14;17.48;;;13.05;;
14052;SDS011;7101;51.600;7.310;2022-09-12T04:14:41;21.95;;;13.65;;
14052;SDS011;7101;51.600;7.310;2022-09-12T04:17:08;21.00;;;13.25;;
14052;SDS011;7101;51.600;7.310;2022-09-12T04:19:36;22.38;;;13.65;;
14052;SDS011;7101;51.600;7.310;2022-09-12T04:22:04;22.30;;;13.43;;
14052;SDS011;7101;51.600;7.310;2022-09-12T04:24:32;16.77;;;11.65;;
14052;SDS011;7101;51.600;7.310;2022-09-12T04:26:59;16.30;;;12.02;;
14052;SDS011;7101;51.600;7.310;2022-09-12T04:29:26;17.30;;;11.85;;
14052;SDS011;7101;51.600;7.310;2022-09-12T04:31:53;19.05;;;12.27;;
14052;SDS011;7101;51.600;7.310;2022-09-12T04:34:20;18.17;;;12.18;;
14052;SDS011;7101;51.600;7.310;2022-09-12T04:36:47;18.20;;;12.88;;
14052;SDS011;7101;51.600;7.310;2022-09-12T04:39:15;17.17;;;12.35;;
14052;SDS011;7101;51.600;7.310;2022-09-12T04:41:43;16.15;;;11.20;;
14052;SDS011;7101;51.600;7.310;2022-09-12T04:44:11;18.65;;;11.02;;
14052;SDS011;7101;51.600;7.310;2022-09-12T04:46:41;20.98;;;12.07;;
14052;SDS011;7101;51.600;7.310;2022-09-12T04:49:11;17.48;;;11.93;;
14052;SDS011;7101;51.600;7.310;2022-09-12T04:51:40;16.85;;;12.05;;
14052;SDS011;7101;51.600;7.310;2022-09-12T04:54:09;18.17;;;11.88;;
14052;SDS011;7101;51.600;7.310;2022-09-12T04:56:40;21.17;;;12.30;;
14052;SDS011;7101;51.600;7.310;2022-09-12T04:59:09;22.33;;;12.57;;
14052;SDS011;7101;51.600;7.310;2022-09-12T05:01:36;20.23;;;12.52;;
14052;SDS011;7101;51.600;7.310;2022-09-12T05:04:04;19.00;;;12.10;;
14052;SDS011;7101;51.600;7.310;2022-09-12T05:06:31;19.58;;;13.02;;
14052;SDS011;7101;51.600;7.310;2022-09-12T05:08:59;19.67;;;13.95;;
14052;SDS011;7101;51.600;7.310;2022-09-12T05:11:28;21.65;;;13.50;;
14052;SDS011;7101;51.600;7.310;2022-09-12T05:13:57;19.60;;;12.23;;
14052;SDS011;7101;51.600;7.310;2022-09-12T05:16:26;21.38;;;12.98;;
14052;SDS011;7101;51.600;7.310;2022-09-12T05:18:54;21.38;;;12.73;;
14052;SDS011;7101;51.600;7.310;2022-09-12T05:21:22;20.50;;;12.75;;
14052;SDS011;7101;51.600;7.310;2022-09-12T05:23:52;23.27;;;13.05;;
14052;SDS011;7101;51.600;7.310;2022-09-12T05:26:20;19.92;;;13.63;;
14052;SDS011;7101;51.600;7.310;2022-09-12T05:28:49;18.55;;;12.52;;
14052;SDS011;7101;51.600;7.310;2022-09-12T05:31:17;20.58;;;12.30;;
14052;SDS011;7101;51.600;7.310;2022-09-12T05:33:47;19.50;;;12.35;;
14052;SDS011;7101;51.600;7.310;2022-09-12T05:36:15;20.08;;;12.88;;
14052;SDS011;7101;51.600;7.310;2022-09-12T05:38:44;19.20;;;12.18;;
14052;SDS011;7101;51.600;7.310;2022-09-12T05:41:12;16.63;;;12.40;;
14052;SDS011;7101;51.600;7.310;2022-09-12T05:43:41;17.20;;;11.93;;
14052;SDS011;7101;51.600;7.310;2022-09-12T05:46:10;19.02;;;12.50;;
14052;SDS011;7101;51.600;7.310;2022-09-12T05:48:39;18.52;;;11.80;;
14052;SDS011;7101;51.600;7.310;2022-09-12T05:51:09;17.77;;;11.95;;
14052;SDS011;7101;51.600;7.310;2022-09-12T05:53:39;19.92;;;11.85;;
14052;SDS011;7101;51.600;7.310;2022-09-12T05:56:07;14.30;;;10.65;;
14052;SDS011;7101;51.600;7.310;2022-09-12T05:58:36;14.18;;;10.30;;
14052;SDS011;7101;51.600;7.310;2022-09-12T06:01:05;16.58;;;10.93;;
14052;SDS011;7101;51.600;7.310;2022-09-12T06:03:33;12.18;;;10.15;;
14052;SDS011;7101;51.600;7.310;2022-09-12T06:06:01;13.68;;;10.00;;
14052;SDS011;7101;51.600;7.310;2022-09-12T06:08:30;13.52;;;8.98;;
14052;SDS011;7101;51.600;7.310;2022-09-12T06:10:58;12.15;;;8.23;;
14052;SDS011;7101;51.600;7.310;2022-09-12T06:13:26;11.98;;;8.38;;
14052;SDS011;7101;51.600;7.310;2022-09-12T06:15:53;10.63;;;8.55;;
14052;SDS011;7101;51.600;7.310;2022-09-12T06:18:20;12.25;;;8.15;;
14052;SDS011;7101;51.600;7.310;2022-09-12T06:20:48;9.23;;;7.85;;
14052;SDS011;7101;51.600;7.310;2022-09-12T06:23:15;10.30;;;8.00;;
14052;SDS011;7101;51.600;7.310;2022-09-12T06:25:47;9.98;;;7.65;;
14052;SDS011;7101;51.600;7.310;2022-09-12T06:28:15;9.38;;;7.72;;
14052;SDS011;7101;51.600;7.310;2022-09-12T06:30:41;10.20;;;7.60;;
14052;SDS011;7101;51.600;7.310;2022-09-12T06:33:08;8.52;;;7.25;;
14052;SDS011;7101;51.600;7.310;2022-09-12T06:35:35;11.35;;;7.32;;
14052;SDS011;7101;51.600;7.310;2022-09-12T06:38:02;9.95;;;6.78;;
14052;SDS011;7101;51.600;7.310;2022-09-12T06:40:30;8.32;;;6.50;;
14052;SDS011;7101;51.600;7.310;2022-09-12T06:42:58;9.13;;;6.47;;
14052;SDS011;7101;51.600;7.310;2022-09-12T06:45:25;10.65;;;6.85;;
14052;SDS011;7101;51.600;7.310;2022-09-12T06:47:53;9.88;;;7.28;;
14052;SDS011;7101;51.600;7.310;2022-09-12T06:50:20;10.38;;;7.40;;
14052;SDS011;7101;51.600;7.310;2022-09-12T06:52:48;9.73;;;7.47;;
14052;SDS011;7101;51.600;7.310;2022-09-12T06:55:15;9.07;;;7.20;;
14052;SDS011;7101;51.600;7.310;2022-09-12T06:57:42;8.18;;;7.25;;
14052;SDS011;7101;51.600;7.310;2022-09-12T07:00:11;10.10;;;7.65;;
14052;SDS011;7101;51.600;7.310;2022-09-12T07:02:39;7.93;;;7.03;;
14052;SDS011;7101;51.600;7.310;2022-09-12T07:05:06;8.55;;;7.35;;
14052;SDS011;7101;51.600;7.310;2022-09-12T07:07:34;9.52;;;6.95;;
14052;SDS011;7101;51.600;7.310;2022-09-12T07:10:02;10.85;;;8.00;;
14052;SDS011;7101;51.600;7.310;2022-09-12T07:12:30;8.45;;;6.80;;
14052;SDS011;7101;51.600;7.310;2022-09-12T07:14:57;8.52;;;7.50;;
14052;SDS011;7101;51.600;7.310;2022-09-12T07:17:26;9.00;;;7.63;;
14052;SDS011;7101;51.600;7.310;2022-09-12T07:19:53;9.65;;;7.28;;
14052;SDS011;7101;51.600;7.310;2022-09-12T07:22:20;10.25;;;6.93;;
14052;SDS011;7101;51.600;7.310;2022-09-12T07:24:47;10.20;;;7.15;;
14052;SDS011;7101;51.600;7.310;2022-09-12T07:27:14;9.25;;;6.95;;
14052;SDS011;7101;51.600;7.310;2022-09-12T07:29:41;8.05;;;7.25;;
14052;SDS011;7101;51.600;7.310;2022-09-12T07:32:10;9.32;;;7.20;;
14052;SDS011;7101;51.600;7.310;2022-09-12T07:34:39;7.80;;;7.00;;
14052;SDS011;7101;51.600;7.310;2022-09-12T07:37:06;12.18;;;7.60;;
14052;SDS011;7101;51.600;7.310;2022-09-12T07:39:33;9.02;;;7.45;;
14052;SDS011;7101;51.600;7.310;2022-09-12T07:42:00;9.57;;;7.70;;
14052;SDS011;7101;51.600;7.310;2022-09-12T07:44:26;11.48;;;8.07;;
14052;SDS011;7101;51.600;7.310;2022-09-12T07:46:53;8.50;;;7.60;;
14052;SDS011;7101;51.600;7.310;2022-09-12T07:49:20;10.43;;;8.05;;
14052;SDS011;7101;51.600;7.310;2022-09-12T07:51:48;11.63;;;7.97;;
14052;SDS011;7101;51.600;7.310;2022-09-12T07:54:15;11.45;;;8.13;;
14052;SDS011;7101;51.600;7.310;2022-09-12T07:56:42;9.77;;;7.28;;
14052;SDS011;7101;51.600;7.310;2022-09-12T07:59:09;10.35;;;7.82;;
14052;SDS011;7101;51.600;7.310;2022-09-12T08:01:38;10.23;;;7.95;;
14052;SDS011;7101;51.600;7.310;2022-09-12T08:04:05;9.60;;;7.43;;
14052;SDS011;7101;51.600;7.310;2022-09-12T08:06:32;8.52;;;7.57;;
14052;SDS011;7101;51.600;7.310;2022-09-12T08:09:02;12.10;;;7.78;;
14052;SDS011;7101;51.600;7.310;2022-09-12T08:11:30;12.68;;;8.15;;
14052;SDS011;7101;51.600;7.310;2022-09-12T08:13:57;11.60;;;8.27;;
14052;SDS011;7101;51.600;7.310;2022-09-12T08:16:28;9.77;;;8.40;;
14052;SDS011;7101;51.600;7.310;2022-09-12T08:18:56;10.98;;;7.95;;
14052;SDS011;7101;51.600;7.310;2022-09-12T08:21:25;10.52;;;7.88;;
14052;SDS011;7101;51.600;7.310;2022-09-12T08:23:54;12.35;;;8.00;;
14052;SDS011;7101;51.600;7.310;2022-09-12T08:26:23;13.15;;;7.68;;
14052;SDS011;7101;51.600;7.310;2022-09-12T08:28:51;13.70;;;8.40;;
14052;SDS011;7101;51.600;7.310;2022-09-12T08:31:19;11.65;;;8.25;;
14052;SDS011;7101;51.600;7.310;2022-09-12T08:33:47;12.23;;;7.90;;
14052;SDS011;7101;51.600;7.310;2022-09-12T08:36:15;11.18;;;7.88;;
14052;SDS011;7101;51.600;7.310;2022-09-12T08:38:45;11.77;;;7.53;;
14052;SDS011;7101;51.600;7.310;2022-09-12T08:41:17;9.27;;;7.75;;
14052;SDS011;7101;51.600;7.310;2022-09-12T08:46:44;9.18;;;7.40;;
14052;SDS011;7101;51.600;7.310;2022-09-12T08:49:24;10.20;;;8.27;;
14052;SDS011;7101;51.600;7.310;2022-09-12T08:51:54;10.75;;;7.63;;
14052;SDS011;7101;51.600;7.310;2022-09-12T08:54:24;11.65;;;8.25;;
14052;SDS011;7101;51.600;7.310;2022-09-12T08:56:55;10.15;;;7.90;;
14052;SDS011;7101;51.600;7.310;2022-09-12T08:59:26;9.65;;;7.60;;
14052;SDS011;7101;51.600;7.310;2022-09-12T09:01:55;9.27;;;7.55;;
14052;SDS011;7101;51.600;7.310;2022-09-12T09:04:31;12.13;;;7.55;;
14052;SDS011;7101;51.600;7.310;2022-09-12T09:07:27;11.63;;;7.60;;
14052;SDS011;7101;51.600;7.310;2022-09-12T09:10:07;12.75;;;7.93;;
14052;SDS011;7101;51.600;7.310;2022-09-12T09:12:46;7.53;;;6.35;;
14052;SDS011;7101;51.600;7.310;2022-09-12T09:15:33;9.52;;;7.38;;
14052;SDS011;7101;51.600;7.310;2022-09-12T09:18:10;9.80;;;6.72;;
14052;SDS011;7101;51.600;7.310;2022-09-12T09:20:43;9.88;;;7.60;;
14052;SDS011;7101;51.600;7.310;2022-09-12T09:23:15;9.77;;;7.30;;
14052;SDS011;7101;51.600;7.310;2022-09-12T09:25:49;14.02;;;7.30;;
14052;SDS011;7101;51.600;7.310;2022-09-12T09:28:19;8.50;;;6.88;;
14052;SDS011;7101;51.600;7.310;2022-09-12T09:30:51;9.35;;;6.97;;
14052;SDS011;7101;51.600;7.310;2022-09-12T09:33:21;8.80;;;7.53;;
14052;SDS011;7101;51.600;7.310;2022-09-12T09:35:54;7.18;;;6.43;;
14052;SDS011;7101;51.600;7.310;2022-09-12T09:38:27;7.72;;;6.88;;
14052;SDS011;7101;51.600;7.310;2022-09-12T09:41:06;10.20;;;6.45;;
14052;SDS011;7101;51.600;7.310;2022-09-12T09:43:50;7.13;;;5.57;;
14052;SDS011;7101;51.600;7.310;2022-09-12T09:46:19;10.32;;;5.82;;
14052;SDS011;7101;51.600;7.310;2022-09-12T09:48:46;9.13;;;5.75;;
14052;SDS011;7101;51.600;7.310;2022-09-12T09:51:15;6.93;;;5.20;;
14052;SDS011;7101;51.600;7.310;2022-09-12T09:53:46;8.60;;;5.22;;
14052;SDS011;7101;51.600;7.310;2022-09-12T09:56:24;8.43;;;5.60;;
14052;SDS011;7101;51.600;7.310;2022-09-12T09:58:53;5.93;;;5.22;;
14052;SDS011;7101;51.600;7.310;2022-09-12T10:01:29;9.88;;;5.60;;
14052;SDS011;7101;51.600;7.310;2022-09-12T10:03:57;6.18;;;5.50;;
14052;SDS011;7101;51.600;7.310;2022-09-12T10:06:25;7.72;;;4.70;;
14052;SDS011;7101;51.600;7.310;2022-09-12T10:09:06;6.60;;;5.00;;
14052;SDS011;7101;51.600;7.310;2022-09-12T10:11:43;5.78;;;4.88;;
14052;SDS011;7101;51.600;7.310;2022-09-12T10:14:24;5.82;;;4.55;;
14052;SDS011;7101;51.600;7.310;2022-09-12T10:16:55;6.55;;;4.60;;
14052;SDS011;7101;51.600;7.310;2022-09-12T10:19:24;5.18;;;4.43;;
14052;SDS011;7101;51.600;7.310;2022-09-12T10:21:59;7.40;;;4.93;;
14052;SDS011;7101;51.600;7.310;2022-09-12T10:24:29;5.30;;;4.40;;
14052;SDS011;7101;51.600;7.310;2022-09-12T10:27:04;7.15;;;4.72;;
14052;SDS011;7101;51.600;7.310;2022-09-12T10:29:38;5.70;;;4.55;;
14052;SDS011;7101;51.600;7.310;2022-09-12T10:32:17;5.57;;;4.75;;
14052;SDS011;7101;51.600;7.310;2022-09-12T10:34:47;6.43;;;5.07;;
14052;SDS011;7101;51.600;7.310;2022-09-12T10:37:22;5.72;;;5.00;;
14052;SDS011;7101;51.600;7.310;2022-09-12T10:39:52;6.47;;;4.38;;
14052;SDS011;7101;51.600;7.310;2022-09-12T10:42:40;8.00;;;4.57;;
14052;SDS011;7101;51.600;7.310;2022-09-12T10:45:18;6.57;;;4.22;;
14052;SDS011;7101;51.600;7.310;2022-09-12T10:47:49;5.00;;;4.45;;
14052;SDS011;7101;51.600;7.310;2022-09-12T10:50:20;8.48;;;4.15;;
14052;SDS011;7101;51.600;7.310;2022-09-12T10:52:50;3.47;;;2.97;;
14052;SDS011;7101;51.600;7.310;2022-09-12T10:55:17;2.88;;;2.65;;
14052;SDS011;7101;51.600;7.310;2022-09-12T10:57:53;4.20;;;2.85;;
14052;SDS011;7101;51.600;7.310;2022-09-12T11:00:54;3.70;;;2.40;;
14052;SDS011;7101;51.600;7.310;2022-09-12T11:03:34;3.15;;;2.53;;
14052;SDS011;7101;51.600;7.310;2022-09-12T11:06:14;3.60;;;2.80;;
14052;SDS011;7101;51.600;7.310;2022-09-12T11:08:57;3.20;;;2.80;;
14052;SDS011;7101;51.600;7.310;2022-09-12T11:11:45;3.90;;;2.83;;
14052;SDS011;7101;51.600;7.310;2022-09-12T11:14:26;4.28;;;2.55;;
14052;SDS011;7101;51.600;7.310;2022-09-12T11:17:03;2.95;;;2.55;;
14052;SDS011;7101;51.600;7.310;2022-09-12T11:19:54;3.20;;;2.63;;
14052;SDS011;7101;51.600;7.310;2022-09-12T11:22:57;4.00;;;2.78;;
14052;SDS011;7101;51.600;7.310;2022-09-12T11:25:51;3.63;;;2.40;;
14052;SDS011;7101;51.600;7.310;2022-09-12T11:28:29;2.92;;;2.65;;
14052;SDS011;7101;51.600;7.310;2022-09-12T11:31:07;3.05;;;2.75;;
14052;SDS011;7101;51.600;7.310;2022-09-12T11:33:45;5.03;;;2.92;;
14052;SDS011;7101;51.600;7.310;2022-09-12T11:36:27;3.65;;;3.20;;
14052;SDS011;7101;51.600;7.310;2022-09-12T11:39:07;6.13;;;2.90;;
14052;SDS011;7101;51.600;7.310;2022-09-12T11:41:39;3.50;;;2.70;;
14052;SDS011;7101;51.600;7.310;2022-09-12T11:44:10;4.40;;;2.50;;
14052;SDS011;7101;51.600;7.310;2022-09-12T11:46:41;4.15;;;2.60;;
14052;SDS011;7101;51.600;7.310;2022-09-12T11:49:15;2.38;;;2.17;;
14052;SDS011;7101;51.600;7.310;2022-09-12T11:51:54;3.65;;;2.50;;
14052;SDS011;7101;51.600;7.310;2022-09-12T11:54:24;4.57;;;2.15;;
14052;SDS011;7101;51.600;7.310;2022-09-12T11:56:58;2.80;;;2.13;;
14052;SDS011;7101;51.600;7.310;2022-09-12T11:59:33;4.78;;;1.90;;
14052;SDS011;7101;51.600;7.310;2022-09-12T12:02:14;2.55;;;2.10;;
14052;SDS011;7101;51.600;7.310;2022-09-12T12:05:01;3.33;;;2.08;;
14052;SDS011;7101;51.600;7.310;2022-09-12T12:07:39;2.83;;;1.98;;
14052;SDS011;7101;51.600;7.310;2022-09-12T12:10:20;3.67;;;2.10;;
14052;SDS011;7101;51.600;7.310;2022-09-12T12:12:55;2.17;;;1.90;;
14052;SDS011;7101;51.600;7.310;2022-09-12T12:15:23;1.95;;;1.85;;
14052;SDS011;7101;51.600;7.310;2022-09-12T12:17:59;2.70;;;1.77;;
14052;SDS011;7101;51.600;7.310;2022-09-12T12:20:27;2.92;;;1.70;;
14052;SDS011;7101;51.600;7.310;2022-09-12T12:22:56;2.15;;;1.60;;
14052;SDS011;7101;51.600;7.310;2022-09-12T12:25:24;2.65;;;1.85;;
14052;SDS011;7101;51.600;7.310;2022-09-12T12:28:04;2.10;;;1.70;;
14052;SDS011;7101;51.600;7.310;2022-09-12T12:36:36;2.67;;;2.33;;
14052;SDS011;7101;51.600;7.310;2022-09-12T12:54:26;2.90;;;2.30;;
14052;SDS011;7101;51.600;7.310;2022-09-12T12:57:01;3.03;;;1.80;;
14052;SDS011;7101;51.600;7.310;2022-09-12T12:59:31;3.28;;;2.00;;
14052;SDS011;7101;51.600;7.310;2022-09-12T13:01:59;3.17;;;2.10;;
14052;SDS011;7101;51.600;7.310;2022-09-12T13:04:29;2.25;;;1.80;;
14052;SDS011;7101;51.600;7.310;2022-09-12T13:06:59;2.10;;;1.90;;
14052;SDS011;7101;51.600;7.310;2022-09-12T13:09:31;2.05;;;1.83;;
14052;SDS011;7101;51.600;7.310;2022-09-12T13:12:02;1.90;;;1.80;;
14052;SDS011;7101;51.600;7.310;2022-09-12T13:14:33;2.35;;;1.98;;
14052;SDS011;7101;51.600;7.310;2022-09-12T13:17:04;2.78;;;2.08;;
14052;SDS011;7101;51.600;7.310;2022-09-12T13:19:35;3.63;;;2.45;;
14052;SDS011;7101;51.600;7.310;2022-09-12T13:22:03;2.85;;;1.90;;
14052;SDS011;7101;51.600;7.310;2022-09-12T13:24:31;2.60;;;1.83;;
14052;SDS011;7101;51.600;7.310;2022-09-12T13:26:59;2.35;;;2.15;;
14052;SDS011;7101;51.600;7.310;2022-09-12T13:29:27;3.70;;;1.90;;
14052;SDS011;7101;51.600;7.310;2022-09-12T13:31:55;2.75;;;2.15;;
14052;SDS011;7101;51.600;7.310;2022-09-12T13:34:29;2.17;;;1.83;;
14052;SDS011;7101;51.600;7.310;2022-09-12T13:37:10;2.42;;;2.20;;
14052;SDS011;7101;51.600;7.310;2022-09-12T13:39:52;3.35;;;2.10;;
14052;SDS011;7101;51.600;7.310;2022-09-12T13:42:38;2.28;;;2.00;;
14052;SDS011;7101;51.600;7.310;2022-09-12T13:45:10;3.10;;;2.10;;
14052;SDS011;7101;51.600;7.310;2022-09-12T13:47:40;2.65;;;1.60;;
14052;SDS011;7101;51.600;7.310;2022-09-12T13:50:13;2.67;;;2.10;;
14052;SDS011;7101;51.600;7.310;2022-09-12T13:52:44;2.63;;;1.80;;
14052;SDS011;7101;51.600;7.310;2022-09-12T13:55:21;3.33;;;1.88;;
14052;SDS011;7101;51.600;7.310;2022-09-12T13:57:55;2.53;;;1.90;;
14052;SDS011;7101;51.600;7.310;2022-09-12T14:00:24;3.20;;;2.10;;
14052;SDS011;7101;51.600;7.310;2022-09-12T14:02:52;2.30;;;1.80;;
14052;SDS011;7101;51.600;7.310;2022-09-12T14:05:42;2.63;;;2.17;;
14052;SDS011;7101;51.600;7.310;2022-09-12T14:08:09;2.17;;;1.98;;
14052;SDS011;7101;51.600;7.310;2022-09-12T14:10:39;2.67;;;2.15;;
14052;SDS011;7101;51.600;7.310;2022-09-12T14:13:09;2.20;;;2.00;;
14052;SDS011;7101;51.600;7.310;2022-09-12T14:15:38;3.47;;;2.30;;
14052;SDS011;7101;51.600;7.310;2022-09-12T14:18:19;3.25;;;2.10;;
14052;SDS011;7101;51.600;7.310;2022-09-12T14:20:53;2.00;;;1.90;;
14052;SDS011;7101;51.600;7.310;2022-09-12T14:23:28;2.22;;;2.00;;
14052;SDS011;7101;51.600;7.310;2022-09-12T14:25:56;2.17;;;1.98;;
14052;SDS011;7101;51.600;7.310;2022-09-12T14:28:26;1.83;;;1.70;;
14052;SDS011;7101;51.600;7.310;2022-09-12T14:30:58;3.90;;;2.22;;
14052;SDS011;7101;51.600;7.310;2022-09-12T14:33:27;2.80;;;1.70;;
14052;SDS011;7101;51.600;7.310;2022-09-12T14:36:08;3.67;;;1.80;;
14052;SDS011;7101;51.600;7.310;2022-09-12T14:38:39;2.50;;;1.85;;
14052;SDS011;7101;51.600;7.310;2022-09-12T14:41:09;2.15;;;1.90;;
14052;SDS011;7101;51.600;7.310;2022-09-12T14:43:38;3.00;;;2.30;;
14052;SDS011;7101;51.600;7.310;2022-09-12T14:46:13;2.90;;;2.05;;
14052;SDS011;7101;51.600;7.310;2022-09-12T14:48:45;2.22;;;2.03;;
14052;SDS011;7101;51.600;7.310;2022-09-12T14:51:24;2.05;;;1.67;;
14052;SDS011;7101;51.600;7.310;2022-09-12T14:53:53;2.70;;;2.05;;
14052;SDS011;7101;51.600;7.310;2022-09-12T14:56:20;2.10;;;1.90;;
14052;SDS011;7101;51.600;7.310;2022-09-12T15:04:51;2.85;;;1.80;;
14052;SDS011;7101;51.600;7.310;2022-09-12T15:07:23;1.80;;;1.60;;
14052;SDS011;7101;51.600;7.310;2022-09-12T15:09:58;2.30;;;1.80;;
14052;SDS011;7101;51.600;7.310;2022-09-12T15:12:27;1.70;;;1.60;;
14052;SDS011;7101;51.600;7.310;2022-09-12T15:14:55;3.40;;;1.77;;
14052;SDS011;7101;51.600;7.310;2022-09-12T15:17:32;2.03;;;1.80;;
14052;SDS011;7101;51.600;7.310;2022-09-12T15:19:59;4.30;;;1.77;;
14052;SDS011;7101;51.600;7.310;2022-09-12T15:22:26;2.72;;;1.98;;
14052;SDS011;7101;51.600;7.310;2022-09-12T15:24:53;2.10;;;1.83;;
14052;SDS011;7101;51.600;7.310;2022-09-12T15:27:22;6.95;;;2.33;;
14052;SDS011;7101;51.600;7.310;2022-09-12T15:29:50;2.30;;;2.10;;
14052;SDS011;7101;51.600;7.310;2022-09-12T15:32:21;2.25;;;1.90;;
14052;SDS011;7101;51.600;7.310;2022-09-12T15:34:49;2.22;;;2.00;;
14052;SDS011;7101;51.600;7.310;2022-09-12T15:37:18;2.30;;;1.90;;
14052;SDS011;7101;51.600;7.310;2022-09-12T15:39:49;2.83;;;1.83;;
14052;SDS011;7101;51.600;7.310;2022-09-12T15:42:26;3.80;;;2.20;;
14052;SDS011;7101;51.600;7.310;2022-09-12T15:44:55;4.93;;;1.80;;